sensor_id;sensor_type;location;lat;lon;timestamp;temperature;humidity
12006;DHT22;6062;47.294;12.182;2023-04-06T06:42:44;1.20;50.90
12006;DHT22;6062;47.294;12.182;2023-04-06T06:45:10;1.40;51.20
12006;DHT22;6062;47.294;12.182;2023-04-06T06:47:36;1.60;51.50
12006;DHT22;6062;47.294;12.182;2023-04-06T06:50:02;2.00;51.50
12006;DHT22;6062;47.294;12.182;2023-04-06T06:52:28;2.40;51.60
12006;DHT22;6062;47.294;12.182;2023-04-06T06:54:54;2.80;51.20
12006;DHT22;6062;47.294;12.182;2023-04-06T06:57:20;3.20;50.50
12006;DHT22;6062;47.294;12.182;2023-04-06T06:59:45;3.60;50.10
12006;DHT22;6062;47.294;12.182;2023-04-06T07:02:11;4.00;48.90
12006;DHT22;6062;47.294;12.182;2023-04-06T07:04:37;4.40;47.80
12006;DHT22;6062;47.294;12.182;2023-04-06T07:07:03;4.70;47.30
12006;DHT22;6062;47.294;12.182;2023-04-06T07:09:28;5.20;47.50
12006;DHT22;6062;47.294;12.182;2023-04-06T07:11:54;5.60;47.30
12006;DHT22;6062;47.294;12.182;2023-04-06T07:14:21;6.10;47.50
12006;DHT22;6062;47.294;12.182;2023-04-06T07:16:47;6.60;47.20
12006;DHT22;6062;47.294;12.182;2023-04-06T07:19:15;7.20;46.70
12006;DHT22;6062;47.294;12.182;2023-04-06T07:21:41;7.90;46.40
12006;DHT22;6062;47.294;12.182;2023-04-06T07:24:07;8.60;45.50
12006;DHT22;6062;47.294;12.182;2023-04-06T07:26:32;9.30;44.00
12006;DHT22;6062;47.294;12.182;2023-04-06T07:28:58;10.00;42.70
12006;DHT22;6062;47.294;12.182;2023-04-06T07:31:24;10.50;41.70
12006;DHT22;6062;47.294;12.182;2023-04-06T07:33:50;11.10;40.10
12006;DHT22;6062;47.294;12.182;2023-04-06T07:36:15;11.60;39.20
12006;DHT22;6062;47.294;12.182;2023-04-06T07:38:41;12.00;38.20
12006;DHT22;6062;47.294;12.182;2023-04-06T07:41:07;12.30;37.30
12006;DHT22;6062;47.294;12.182;2023-04-06T07:43:33;12.50;36.30
12006;DHT22;6062;47.294;12.182;2023-04-06T07:45:58;12.60;35.80
12006;DHT22;6062;47.294;12.182;2023-04-06T07:48:25;12.60;35.00
12006;DHT22;6062;47.294;12.182;2023-04-06T07:50:51;12.60;34.30
12006;DHT22;6062;47.294;12.182;2023-04-06T07:53:17;12.60;33.70
12006;DHT22;6062;47.294;12.182;2023-04-06T07:55:43;12.40;34.10
12006;DHT22;6062;47.294;12.182;2023-04-06T07:58:08;12.30;33.40
12006;DHT22;6062;47.294;12.182;2023-04-06T08:00:34;12.10;32.90
12006;DHT22;6062;47.294;12.182;2023-04-06T08:03:00;11.80;33.10
12006;DHT22;6062;47.294;12.182;2023-04-06T08:05:26;11.60;33.10
12006;DHT22;6062;47.294;12.182;2023-04-06T08:07:51;11.30;33.10
12006;DHT22;6062;47.294;12.182;2023-04-06T08:10:17;11.00;33.00
12006;DHT22;6062;47.294;12.182;2023-04-06T08:12:43;10.70;33.10
12006;DHT22;6062;47.294;12.182;2023-04-06T08:15:09;10.40;33.30
12006;DHT22;6062;47.294;12.182;2023-04-06T08:17:35;10.10;33.50
12006;DHT22;6062;47.294;12.182;2023-04-06T08:20:01;9.80;33.60
12006;DHT22;6062;47.294;12.182;2023-04-06T08:22:28;9.50;34.30
12006;DHT22;6062;47.294;12.182;2023-04-06T08:24:54;9.30;35.50
12006;DHT22;6062;47.294;12.182;2023-04-06T08:27:20;9.20;36.20
12006;DHT22;6062;47.294;12.182;2023-04-06T08:29:46;9.30;37.40
12006;DHT22;6062;47.294;12.182;2023-04-06T08:32:13;9.50;38.00
12006;DHT22;6062;47.294;12.182;2023-04-06T08:34:38;9.80;38.30
12006;DHT22;6062;47.294;12.182;2023-04-06T08:37:04;10.30;38.20
12006;DHT22;6062;47.294;12.182;2023-04-06T08:39:30;10.70;37.40
12006;DHT22;6062;47.294;12.182;2023-04-06T08:41:58;11.10;36.80
12006;DHT22;6062;47.294;12.182;2023-04-06T08:44:29;11.40;35.70
12006;DHT22;6062;47.294;12.182;2023-04-06T08:46:57;11.80;36.20
12006;DHT22;6062;47.294;12.182;2023-04-06T08:49:24;12.10;35.30
12006;DHT22;6062;47.294;12.182;2023-04-06T08:51:51;12.40;34.90
12006;DHT22;6062;47.294;12.182;2023-04-06T08:54:17;12.70;34.80
12006;DHT22;6062;47.294;12.182;2023-04-06T08:56:43;13.10;35.00
12006;DHT22;6062;47.294;12.182;2023-04-06T08:59:09;13.50;34.30
12006;DHT22;6062;47.294;12.182;2023-04-06T09:01:39;13.80;33.60
12006;DHT22;6062;47.294;12.182;2023-04-06T09:04:07;14.20;32.40
12006;DHT22;6062;47.294;12.182;2023-04-06T09:06:36;14.50;31.90
12006;DHT22;6062;47.294;12.182;2023-04-06T09:09:03;14.60;30.80
12006;DHT22;6062;47.294;12.182;2023-04-06T09:11:29;14.70;31.30
12006;DHT22;6062;47.294;12.182;2023-04-06T09:14:11;14.80;31.00
12006;DHT22;6062;47.294;12.182;2023-04-06T09:16:41;15.00;30.90
12006;DHT22;6062;47.294;12.182;2023-04-06T09:19:09;15.20;30.70
12006;DHT22;6062;47.294;12.182;2023-04-06T09:21:37;15.40;30.80
12006;DHT22;6062;47.294;12.182;2023-04-06T09:24:06;15.70;29.60
12006;DHT22;6062;47.294;12.182;2023-04-06T09:26:44;16.10;29.90
12006;DHT22;6062;47.294;12.182;2023-04-06T09:29:24;16.50;28.10
12006;DHT22;6062;47.294;12.182;2023-04-06T09:31:52;16.70;27.60
12006;DHT22;6062;47.294;12.182;2023-04-06T09:34:21;16.80;28.20
12006;DHT22;6062;47.294;12.182;2023-04-06T09:36:48;16.90;28.10
12006;DHT22;6062;47.294;12.182;2023-04-06T09:39:15;17.00;28.10
12006;DHT22;6062;47.294;12.182;2023-04-06T09:41:40;17.00;27.80
12006;DHT22;6062;47.294;12.182;2023-04-06T09:44:09;17.10;27.90
12006;DHT22;6062;47.294;12.182;2023-04-06T09:46:38;17.30;28.40
12006;DHT22;6062;47.294;12.182;2023-04-06T09:49:06;17.40;28.40
12006;DHT22;6062;47.294;12.182;2023-04-06T09:51:45;17.60;27.90
12006;DHT22;6062;47.294;12.182;2023-04-06T09:54:15;17.70;27.00
12006;DHT22;6062;47.294;12.182;2023-04-06T09:59:30;17.60;26.70
12006;DHT22;6062;47.294;12.182;2023-04-06T10:02:22;17.30;26.50
12006;DHT22;6062;47.294;12.182;2023-04-06T10:05:04;17.10;26.90
12006;DHT22;6062;47.294;12.182;2023-04-06T10:07:35;16.80;27.00
12006;DHT22;6062;47.294;12.182;2023-04-06T10:10:03;16.50;27.00
12006;DHT22;6062;47.294;12.182;2023-04-06T10:12:29;16.30;26.80
12006;DHT22;6062;47.294;12.182;2023-04-06T10:14:56;16.10;26.60
12006;DHT22;6062;47.294;12.182;2023-04-06T10:17:21;15.80;27.00
12006;DHT22;6062;47.294;12.182;2023-04-06T10:19:59;15.50;27.40
12006;DHT22;6062;47.294;12.182;2023-04-06T10:22:49;15.20;27.30
12006;DHT22;6062;47.294;12.182;2023-04-06T10:25:32;14.90;27.50
12006;DHT22;6062;47.294;12.182;2023-04-06T10:28:02;14.70;27.90
12006;DHT22;6062;47.294;12.182;2023-04-06T10:30:31;14.40;27.80
12006;DHT22;6062;47.294;12.182;2023-04-06T10:32:58;14.20;28.00
12006;DHT22;6062;47.294;12.182;2023-04-06T10:35:24;14.00;28.00
12006;DHT22;6062;47.294;12.182;2023-04-06T10:38:03;13.80;28.30
12006;DHT22;6062;47.294;12.182;2023-04-06T10:40:29;13.60;29.00
12006;DHT22;6062;47.294;12.182;2023-04-06T10:43:10;13.60;29.30
12006;DHT22;6062;47.294;12.182;2023-04-06T10:45:38;13.50;29.40
12006;DHT22;6062;47.294;12.182;2023-04-06T10:48:14;13.60;29.60
12006;DHT22;6062;47.294;12.182;2023-04-06T10:50:47;13.60;29.50
12006;DHT22;6062;47.294;12.182;2023-04-06T10:53:21;13.60;29.70
12006;DHT22;6062;47.294;12.182;2023-04-06T10:55:50;13.60;29.30
12006;DHT22;6062;47.294;12.182;2023-04-06T10:58:17;13.50;29.30
12006;DHT22;6062;47.294;12.182;2023-04-06T11:00:47;13.50;29.40
12006;DHT22;6062;47.294;12.182;2023-04-06T11:03:14;13.40;29.60
12006;DHT22;6062;47.294;12.182;2023-04-06T11:05:47;13.20;30.00
12006;DHT22;6062;47.294;12.182;2023-04-06T11:08:29;13.10;30.40
12006;DHT22;6062;47.294;12.182;2023-04-06T11:11:07;13.10;30.50
12006;DHT22;6062;47.294;12.182;2023-04-06T11:16:11;13.30;30.10
12006;DHT22;6062;47.294;12.182;2023-04-06T11:18:52;13.30;29.90
12006;DHT22;6062;47.294;12.182;2023-04-06T11:21:35;13.20;29.80
12006;DHT22;6062;47.294;12.182;2023-04-06T11:24:14;13.10;29.60
12006;DHT22;6062;47.294;12.182;2023-04-06T11:26:48;12.90;30.00
12006;DHT22;6062;47.294;12.182;2023-04-06T11:29:27;12.80;30.40
12006;DHT22;6062;47.294;12.182;2023-04-06T11:32:03;12.70;30.50
12006;DHT22;6062;47.294;12.182;2023-04-06T11:34:34;12.70;30.30
12006;DHT22;6062;47.294;12.182;2023-04-06T11:37:03;12.60;30.10
12006;DHT22;6062;47.294;12.182;2023-04-06T11:42:12;12.50;30.40
12006;DHT22;6062;47.294;12.182;2023-04-06T11:44:45;12.40;30.90
12006;DHT22;6062;47.294;12.182;2023-04-06T11:47:12;12.40;31.50
12006;DHT22;6062;47.294;12.182;2023-04-06T11:49:39;12.50;31.90
12006;DHT22;6062;47.294;12.182;2023-04-06T11:54:48;12.70;30.80
12006;DHT22;6062;47.294;12.182;2023-04-06T11:57:15;12.80;30.90
12006;DHT22;6062;47.294;12.182;2023-04-06T11:59:42;12.90;31.30
12006;DHT22;6062;47.294;12.182;2023-04-06T12:02:08;13.00;31.00
12006;DHT22;6062;47.294;12.182;2023-04-06T12:04:34;13.10;30.90
12006;DHT22;6062;47.294;12.182;2023-04-06T12:07:00;13.20;30.00
12006;DHT22;6062;47.294;12.182;2023-04-06T12:09:26;13.30;29.80
12006;DHT22;6062;47.294;12.182;2023-04-06T12:11:52;13.40;29.70
12006;DHT22;6062;47.294;12.182;2023-04-06T12:14:18;13.40;29.50
12006;DHT22;6062;47.294;12.182;2023-04-06T12:16:43;13.30;29.60
12006;DHT22;6062;47.294;12.182;2023-04-06T12:19:09;13.20;29.40
12006;DHT22;6062;47.294;12.182;2023-04-06T12:21:35;13.00;29.80
12006;DHT22;6062;47.294;12.182;2023-04-06T12:24:04;13.00;30.20
12006;DHT22;6062;47.294;12.182;2023-04-06T12:26:31;12.90;29.90
12006;DHT22;6062;47.294;12.182;2023-04-06T12:28:58;12.90;29.70
12006;DHT22;6062;47.294;12.182;2023-04-06T12:31:32;12.70;29.80
12006;DHT22;6062;47.294;12.182;2023-04-06T12:33:58;12.60;29.70
12006;DHT22;6062;47.294;12.182;2023-04-06T12:36:24;12.60;29.60
12006;DHT22;6062;47.294;12.182;2023-04-06T12:38:50;12.40;29.40
12006;DHT22;6062;47.294;12.182;2023-04-06T12:41:17;12.30;29.70
12006;DHT22;6062;47.294;12.182;2023-04-06T12:43:44;12.10;30.00
12006;DHT22;6062;47.294;12.182;2023-04-06T12:46:10;12.00;30.80
12006;DHT22;6062;47.294;12.182;2023-04-06T12:48:37;11.90;30.80
12006;DHT22;6062;47.294;12.182;2023-04-06T12:51:05;12.00;31.00
12006;DHT22;6062;47.294;12.182;2023-04-06T12:53:32;12.00;30.70
12006;DHT22;6062;47.294;12.182;2023-04-06T12:55:59;12.00;30.50
12006;DHT22;6062;47.294;12.182;2023-04-06T12:58:26;12.00;30.60
12006;DHT22;6062;47.294;12.182;2023-04-06T13:00:53;12.10;30.70
12006;DHT22;6062;47.294;12.182;2023-04-06T13:03:19;12.10;30.60
12006;DHT22;6062;47.294;12.182;2023-04-06T13:05:52;12.00;29.90
12006;DHT22;6062;47.294;12.182;2023-04-06T13:08:19;11.90;29.20
12006;DHT22;6062;47.294;12.182;2023-04-06T13:10:50;11.80;29.50
12006;DHT22;6062;47.294;12.182;2023-04-06T13:13:21;11.60;29.50
12006;DHT22;6062;47.294;12.182;2023-04-06T13:15:48;11.40;29.90
12006;DHT22;6062;47.294;12.182;2023-04-06T13:18:14;11.10;30.00
12006;DHT22;6062;47.294;12.182;2023-04-06T13:20:41;10.90;30.50
12006;DHT22;6062;47.294;12.182;2023-04-06T13:23:07;10.70;30.80
12006;DHT22;6062;47.294;12.182;2023-04-06T13:25:33;10.50;31.10
12006;DHT22;6062;47.294;12.182;2023-04-06T13:27:59;10.30;31.50
12006;DHT22;6062;47.294;12.182;2023-04-06T13:30:25;10.20;31.90
12006;DHT22;6062;47.294;12.182;2023-04-06T13:32:51;10.10;32.10
12006;DHT22;6062;47.294;12.182;2023-04-06T13:35:17;10.00;31.70
12006;DHT22;6062;47.294;12.182;2023-04-06T13:37:43;9.80;31.30
12006;DHT22;6062;47.294;12.182;2023-04-06T13:40:10;9.70;31.20
12006;DHT22;6062;47.294;12.182;2023-04-06T13:42:37;9.40;31.80
12006;DHT22;6062;47.294;12.182;2023-04-06T13:45:06;9.20;32.40
12006;DHT22;6062;47.294;12.182;2023-04-06T13:47:33;9.00;32.80
12006;DHT22;6062;47.294;12.182;2023-04-06T13:49:58;8.90;33.10
12006;DHT22;6062;47.294;12.182;2023-04-06T13:52:24;8.80;32.90
12006;DHT22;6062;47.294;12.182;2023-04-06T13:54:50;8.70;33.10
12006;DHT22;6062;47.294;12.182;2023-04-06T13:57:16;8.60;33.30
12006;DHT22;6062;47.294;12.182;2023-04-06T13:59:42;8.60;33.40
12006;DHT22;6062;47.294;12.182;2023-04-06T14:02:09;8.50;33.90
12006;DHT22;6062;47.294;12.182;2023-04-06T14:04:36;8.50;34.20
12006;DHT22;6062;47.294;12.182;2023-04-06T14:07:02;8.60;34.10
12006;DHT22;6062;47.294;12.182;2023-04-06T14:09:29;8.60;33.60
12006;DHT22;6062;47.294;12.182;2023-04-06T14:11:55;8.60;33.80
12006;DHT22;6062;47.294;12.182;2023-04-06T14:14:22;8.60;33.90
12006;DHT22;6062;47.294;12.182;2023-04-06T14:16:49;8.60;33.70
12006;DHT22;6062;47.294;12.182;2023-04-06T14:19:16;8.60;33.80
12006;DHT22;6062;47.294;12.182;2023-04-06T14:21:43;8.60;33.80
12006;DHT22;6062;47.294;12.182;2023-04-06T14:24:10;8.50;34.00
12006;DHT22;6062;47.294;12.182;2023-04-06T14:26:38;8.50;34.10
12006;DHT22;6062;47.294;12.182;2023-04-06T14:29:04;8.50;34.20
12006;DHT22;6062;47.294;12.182;2023-04-06T14:31:31;8.50;34.30
12006;DHT22;6062;47.294;12.182;2023-04-06T14:33:57;8.50;34.30
12006;DHT22;6062;47.294;12.182;2023-04-06T14:36:24;8.50;34.30
12006;DHT22;6062;47.294;12.182;2023-04-06T14:38:52;8.40;34.30
12006;DHT22;6062;47.294;12.182;2023-04-06T14:41:19;8.40;34.50
12006;DHT22;6062;47.294;12.182;2023-04-06T14:43:46;8.30;34.20
12006;DHT22;6062;47.294;12.182;2023-04-06T14:46:12;8.20;34.00
12006;DHT22;6062;47.294;12.182;2023-04-06T14:48:38;8.20;34.10
12006;DHT22;6062;47.294;12.182;2023-04-06T14:51:04;8.00;34.60
12006;DHT22;6062;47.294;12.182;2023-04-06T14:53:30;7.80;34.70
12006;DHT22;6062;47.294;12.182;2023-04-06T14:55:56;7.70;35.00
12006;DHT22;6062;47.294;12.182;2023-04-06T14:58:23;7.60;35.10
12006;DHT22;6062;47.294;12.182;2023-04-06T15:00:49;7.50;35.30
12006;DHT22;6062;47.294;12.182;2023-04-06T15:03:21;7.40;35.80
12006;DHT22;6062;47.294;12.182;2023-04-06T15:05:47;7.40;36.20
12006;DHT22;6062;47.294;12.182;2023-04-06T15:08:13;7.30;36.10
12006;DHT22;6062;47.294;12.182;2023-04-06T15:10:40;7.30;36.20
12006;DHT22;6062;47.294;12.182;2023-04-06T15:13:06;7.20;35.90
12006;DHT22;6062;47.294;12.182;2023-04-06T15:15:31;7.20;36.00
12006;DHT22;6062;47.294;12.182;2023-04-06T15:17:57;7.10;36.00
12006;DHT22;6062;47.294;12.182;2023-04-06T15:20:23;7.00;36.10
12006;DHT22;6062;47.294;12.182;2023-04-06T15:22:49;6.90;36.20
12006;DHT22;6062;47.294;12.182;2023-04-06T15:25:14;6.70;36.30
12006;DHT22;6062;47.294;12.182;2023-04-06T15:27:41;6.60;36.50
12006;DHT22;6062;47.294;12.182;2023-04-06T15:30:06;6.50;36.60
12006;DHT22;6062;47.294;12.182;2023-04-06T15:32:32;6.30;36.80
12006;DHT22;6062;47.294;12.182;2023-04-06T15:34:59;6.20;37.00
12006;DHT22;6062;47.294;12.182;2023-04-06T15:37:25;6.00;37.20
12006;DHT22;6062;47.294;12.182;2023-04-06T15:39:51;5.90;37.30
12006;DHT22;6062;47.294;12.182;2023-04-06T15:42:17;5.80;37.40
12006;DHT22;6062;47.294;12.182;2023-04-06T15:44:43;5.70;37.50
12006;DHT22;6062;47.294;12.182;2023-04-06T15:47:08;5.50;37.30
12006;DHT22;6062;47.294;12.182;2023-04-06T15:49:34;5.40;37.40
12006;DHT22;6062;47.294;12.182;2023-04-06T15:52:00;5.30;37.80
12006;DHT22;6062;47.294;12.182;2023-04-06T15:54:26;5.20;37.90
12006;DHT22;6062;47.294;12.182;2023-04-06T15:56:51;5.10;37.80
12006;DHT22;6062;47.294;12.182;2023-04-06T15:59:17;5.00;38.00
12006;DHT22;6062;47.294;12.182;2023-04-06T16:01:45;4.90;38.30
12006;DHT22;6062;47.294;12.182;2023-04-06T16:04:11;4.90;38.50
12006;DHT22;6062;47.294;12.182;2023-04-06T16:06:37;4.80;38.80
12006;DHT22;6062;47.294;12.182;2023-04-06T16:09:03;4.70;38.70
12006;DHT22;6062;47.294;12.182;2023-04-06T16:11:28;4.70;38.50
12006;DHT22;6062;47.294;12.182;2023-04-06T16:13:54;4.60;38.40
12006;DHT22;6062;47.294;12.182;2023-04-06T16:16:20;4.40;38.60
12006;DHT22;6062;47.294;12.182;2023-04-06T16:18:46;4.30;38.80
12006;DHT22;6062;47.294;12.182;2023-04-06T16:21:15;4.20;39.10
12006;DHT22;6062;47.294;12.182;2023-04-06T16:23:42;4.00;39.20
12006;DHT22;6062;47.294;12.182;2023-04-06T16:26:12;3.90;39.30
12006;DHT22;6062;47.294;12.182;2023-04-06T16:28:42;3.80;39.80
12006;DHT22;6062;47.294;12.182;2023-04-06T16:31:16;3.70;39.80
12006;DHT22;6062;47.294;12.182;2023-04-06T16:33:47;3.60;40.10
12006;DHT22;6062;47.294;12.182;2023-04-06T16:36:20;3.50;40.20
12006;DHT22;6062;47.294;12.182;2023-04-06T16:38:51;3.40;40.50
12006;DHT22;6062;47.294;12.182;2023-04-06T16:41:17;3.30;40.70
12006;DHT22;6062;47.294;12.182;2023-04-06T16:43:42;3.20;40.90
12006;DHT22;6062;47.294;12.182;2023-04-06T16:46:08;3.10;41.00
12006;DHT22;6062;47.294;12.182;2023-04-06T16:48:34;3.00;41.20
12006;DHT22;6062;47.294;12.182;2023-04-06T16:51:08;2.90;41.70
12006;DHT22;6062;47.294;12.182;2023-04-06T16:53:35;2.80;41.80
12006;DHT22;6062;47.294;12.182;2023-04-06T16:56:03;2.80;41.70
12006;DHT22;6062;47.294;12.182;2023-04-06T16:58:33;2.70;41.70
12006;DHT22;6062;47.294;12.182;2023-04-06T17:00:59;2.70;41.90
12006;DHT22;6062;47.294;12.182;2023-04-06T17:03:26;2.60;41.90
12006;DHT22;6062;47.294;12.182;2023-04-06T17:05:52;2.60;41.70
12006;DHT22;6062;47.294;12.182;2023-04-06T17:08:17;2.50;41.70
12006;DHT22;6062;47.294;12.182;2023-04-06T17:10:43;2.50;41.90
12006;DHT22;6062;47.294;12.182;2023-04-06T17:13:09;2.40;42.00
12006;DHT22;6062;47.294;12.182;2023-04-06T17:15:35;2.40;42.00
12006;DHT22;6062;47.294;12.182;2023-04-06T17:18:01;2.30;42.20
12006;DHT22;6062;47.294;12.182;2023-04-06T17:20:26;2.30;42.40
12006;DHT22;6062;47.294;12.182;2023-04-06T17:22:52;2.20;42.60
12006;DHT22;6062;47.294;12.182;2023-04-06T17:25:18;2.20;43.00
12006;DHT22;6062;47.294;12.182;2023-04-06T17:27:44;2.30;43.80
12006;DHT22;6062;47.294;12.182;2023-04-06T17:30:11;2.10;43.30
12006;DHT22;6062;47.294;12.182;2023-04-06T17:32:38;2.10;43.50
12006;DHT22;6062;47.294;12.182;2023-04-06T17:35:04;2.10;43.50
12006;DHT22;6062;47.294;12.182;2023-04-06T17:37:30;2.10;43.70
12006;DHT22;6062;47.294;12.182;2023-04-06T17:39:56;2.00;43.60
12006;DHT22;6062;47.294;12.182;2023-04-06T17:42:22;2.00;43.60
12006;DHT22;6062;47.294;12.182;2023-04-06T17:44:48;1.90;43.60
12006;DHT22;6062;47.294;12.182;2023-04-06T17:47:15;1.90;43.70
12006;DHT22;6062;47.294;12.182;2023-04-06T17:49:40;1.80;43.70
12006;DHT22;6062;47.294;12.182;2023-04-06T17:52:07;1.80;43.80
12006;DHT22;6062;47.294;12.182;2023-04-06T17:54:35;1.70;43.80
12006;DHT22;6062;47.294;12.182;2023-04-06T17:57:02;1.60;44.00
12006;DHT22;6062;47.294;12.182;2023-04-06T17:59:28;1.60;44.10
12006;DHT22;6062;47.294;12.182;2023-04-06T18:01:54;1.50;44.10
12006;DHT22;6062;47.294;12.182;2023-04-06T18:04:20;1.40;44.30
12006;DHT22;6062;47.294;12.182;2023-04-06T18:06:46;1.30;44.50
12006;DHT22;6062;47.294;12.182;2023-04-06T18:09:13;1.20;45.40
12006;DHT22;6062;47.294;12.182;2023-04-06T18:11:38;1.20;44.90
12006;DHT22;6062;47.294;12.182;2023-04-06T18:14:07;1.10;44.90
12006;DHT22;6062;47.294;12.182;2023-04-06T18:16:35;1.10;45.10
12006;DHT22;6062;47.294;12.182;2023-04-06T18:19:01;1.00;45.10
12006;DHT22;6062;47.294;12.182;2023-04-06T18:21:29;0.90;45.10
12006;DHT22;6062;47.294;12.182;2023-04-06T18:23:56;0.90;45.20
12006;DHT22;6062;47.294;12.182;2023-04-06T18:26:22;0.80;45.30
12006;DHT22;6062;47.294;12.182;2023-04-06T18:28:49;0.70;45.40
12006;DHT22;6062;47.294;12.182;2023-04-06T18:31:15;0.70;45.40
12006;DHT22;6062;47.294;12.182;2023-04-06T18:33:41;0.60;45.50
12006;DHT22;6062;47.294;12.182;2023-04-06T18:36:08;0.60;45.80
12006;DHT22;6062;47.294;12.182;2023-04-06T18:38:38;0.50;46.00
12006;DHT22;6062;47.294;12.182;2023-04-06T18:41:06;0.50;46.30
12006;DHT22;6062;47.294;12.182;2023-04-06T18:43:31;0.40;46.40
12006;DHT22;6062;47.294;12.182;2023-04-06T18:45:57;0.40;46.40
12006;DHT22;6062;47.294;12.182;2023-04-06T18:48:24;0.40;46.60
12006;DHT22;6062;47.294;12.182;2023-04-06T18:50:52;0.40;46.70
12006;DHT22;6062;47.294;12.182;2023-04-06T18:53:18;0.40;46.90
12006;DHT22;6062;47.294;12.182;2023-04-06T18:55:45;0.40;47.00
12006;DHT22;6062;47.294;12.182;2023-04-06T18:58:11;0.30;47.20
12006;DHT22;6062;47.294;12.182;2023-04-06T19:00:39;0.30;47.20
12006;DHT22;6062;47.294;12.182;2023-04-06T19:03:06;0.30;47.30
12006;DHT22;6062;47.294;12.182;2023-04-06T19:05:31;0.20;47.20
12006;DHT22;6062;47.294;12.182;2023-04-06T19:07:57;0.30;47.30
12006;DHT22;6062;47.294;12.182;2023-04-06T19:10:23;0.20;47.30
12006;DHT22;6062;47.294;12.182;2023-04-06T19:12:48;0.20;47.50
12006;DHT22;6062;47.294;12.182;2023-04-06T19:15:14;0.20;47.70
12006;DHT22;6062;47.294;12.182;2023-04-06T19:17:40;0.20;47.60
12006;DHT22;6062;47.294;12.182;2023-04-06T19:20:07;0.20;47.80
12006;DHT22;6062;47.294;12.182;2023-04-06T19:22:36;0.20;47.90
12006;DHT22;6062;47.294;12.182;2023-04-06T19:25:03;0.10;48.00
12006;DHT22;6062;47.294;12.182;2023-04-06T19:27:30;0.10;48.00
12006;DHT22;6062;47.294;12.182;2023-04-06T19:29:56;0.10;48.10
12006;DHT22;6062;47.294;12.182;2023-04-06T19:32:22;0.00;48.20
12006;DHT22;6062;47.294;12.182;2023-04-06T19:34:48;0.00;48.40
12006;DHT22;6062;47.294;12.182;2023-04-06T19:37:14;0.00;48.40
12006;DHT22;6062;47.294;12.182;2023-04-06T19:39:40;-0.10;48.50
12006;DHT22;6062;47.294;12.182;2023-04-06T19:42:09;-0.10;48.70
12006;DHT22;6062;47.294;12.182;2023-04-06T19:44:35;-0.10;48.80
12006;DHT22;6062;47.294;12.182;2023-04-06T19:47:01;-0.10;48.90
12006;DHT22;6062;47.294;12.182;2023-04-06T19:49:27;-0.10;49.10
12006;DHT22;6062;47.294;12.182;2023-04-06T19:51:55;-0.10;49.00
12006;DHT22;6062;47.294;12.182;2023-04-06T19:54:22;-0.20;49.10
12006;DHT22;6062;47.294;12.182;2023-04-06T19:56:48;-0.20;49.10
12006;DHT22;6062;47.294;12.182;2023-04-06T19:59:14;-0.20;49.30
12006;DHT22;6062;47.294;12.182;2023-04-06T20:01:42;-0.10;49.50
12006;DHT22;6062;47.294;12.182;2023-04-06T20:04:09;-0.10;49.70
12006;DHT22;6062;47.294;12.182;2023-04-06T20:06:36;-0.10;49.80
12006;DHT22;6062;47.294;12.182;2023-04-06T20:09:02;0.00;49.80
12006;DHT22;6062;47.294;12.182;2023-04-06T20:11:28;0.00;49.60
12006;DHT22;6062;47.294;12.182;2023-04-06T20:13:53;0.10;49.60
12006;DHT22;6062;47.294;12.182;2023-04-06T20:16:19;0.10;49.90
12006;DHT22;6062;47.294;12.182;2023-04-06T20:18:45;0.10;49.90
12006;DHT22;6062;47.294;12.182;2023-04-06T20:21:11;0.20;49.90
12006;DHT22;6062;47.294;12.182;2023-04-06T20:23:37;0.20;49.90
12006;DHT22;6062;47.294;12.182;2023-04-06T20:26:03;0.30;50.00
12006;DHT22;6062;47.294;12.182;2023-04-06T20:28:32;0.30;50.00
12006;DHT22;6062;47.294;12.182;2023-04-06T20:30:58;0.30;49.90
12006;DHT22;6062;47.294;12.182;2023-04-06T20:33:25;0.30;50.00
12006;DHT22;6062;47.294;12.182;2023-04-06T20:35:58;0.40;49.80
12006;DHT22;6062;47.294;12.182;2023-04-06T20:38:25;0.40;49.90
12006;DHT22;6062;47.294;12.182;2023-04-06T20:40:51;0.40;49.90
12006;DHT22;6062;47.294;12.182;2023-04-06T20:43:17;0.40;49.90
12006;DHT22;6062;47.294;12.182;2023-04-06T20:45:44;0.40;50.10
12006;DHT22;6062;47.294;12.182;2023-04-06T20:48:10;0.40;50.00
12006;DHT22;6062;47.294;12.182;2023-04-06T20:50:38;0.50;49.90
12006;DHT22;6062;47.294;12.182;2023-04-06T20:53:03;0.50;49.90
12006;DHT22;6062;47.294;12.182;2023-04-06T20:55:29;0.50;49.90
12006;DHT22;6062;47.294;12.182;2023-04-06T20:57:55;0.50;49.90
12006;DHT22;6062;47.294;12.182;2023-04-06T21:00:21;0.50;50.10
12006;DHT22;6062;47.294;12.182;2023-04-06T21:02:46;0.50;50.30
12006;DHT22;6062;47.294;12.182;2023-04-06T21:05:12;0.50;50.20
12006;DHT22;6062;47.294;12.182;2023-04-06T21:07:38;0.50;50.20
12006;DHT22;6062;47.294;12.182;2023-04-06T21:10:04;0.50;50.20
12006;DHT22;6062;47.294;12.182;2023-04-06T21:12:31;0.60;50.90
12006;DHT22;6062;47.294;12.182;2023-04-06T21:14:56;0.60;50.60
12006;DHT22;6062;47.294;12.182;2023-04-06T21:17:22;0.60;50.60
12006;DHT22;6062;47.294;12.182;2023-04-06T21:19:48;0.60;50.50
12006;DHT22;6062;47.294;12.182;2023-04-06T21:22:14;0.60;50.60
12006;DHT22;6062;47.294;12.182;2023-04-06T21:24:40;0.50;50.40
12006;DHT22;6062;47.294;12.182;2023-04-06T21:27:06;0.50;50.30
12006;DHT22;6062;47.294;12.182;2023-04-06T21:29:32;0.50;50.20
12006;DHT22;6062;47.294;12.182;2023-04-06T21:31:58;0.50;50.10
12006;DHT22;6062;47.294;12.182;2023-04-06T21:34:24;0.50;50.00
